Terminal Aerodrome Forecast
Issued by NWS

Home | Current Version | Previous Version | Text Only | Print | Product List | Glossary On
Versions: 1 2 3 4 5 6 7 8 9 10 11 12 13 14 15 16
000
FTUS45 KLKN 211120
TAFEKO
TAF
KEKO 211120Z 2112/2212 25008KT P6SM VCSH SCT050 OVC080
     FM211600 24015G30KT P6SM VCSH BKN050
     FM212000 23027G40KT P6SM -SHRA OVC030
     FM220200 24008KT P6SM -SHSN FEW010 OVC030=

USA.gov is the U.S. government's official web portal to all federal, state and local government web resources and services.